Villa Carlos Paz, Argentina
Current Conditions -  °F | °C
As of 6:00 AM on Wednesday 26 Nov 2014 (Local Time) from SACO Reporting Station
Moderate Rain Moderate Rain  
Wind Chill: 61°   Ceiling: 5000
Heat Index: 61°   Visibility: 3mi
Dew Point: 59°   Wind: 2mph
Humidity: 94%   Direction: 140°SE
Pressure: 30.03"   Gusts: NA
Location:  31.42°S, 64.5°W
Report Text: SACO 260900Z 14002KT 5000 RA SCT025FEW045CB BKN050 16/15 Q1017
Loading
Personal Weather Stations






























Interactive Weather Map New forecast layout! Learn more

10-Day Weather Forecast

Advertisements
Track Severe Weather on mobile